Time;durP1;ratioP1;P1;durP2;ratioP2;P2;SDS_P1;SDS_P2;PMS_P1;PMS_P2;Temp;Humidity;BMP_temperature;BMP_pressure;BME280_temperature;BME280_humidity;BME280_pressure;Samples;Min_cycle;Max_cycle;Signal;HPM_P1;HPM_P2
2021/07/23 00:01:55;;;;;;;10.85;5.80;;;;;;;;;;5095006;28;20028;-49
2021/07/23 00:04:22;;;;;;;21.95;5.15;;;;;;;;;;5095837;28;20017;-49
2021/07/23 00:06:51;;;;;;;7.93;4.68;;;;;;;;;;5095638;28;20032;-49
2021/07/23 00:09:17;;;;;;;16.75;6.18;;;;;;;;;;5095293;28;20481;-49
2021/07/23 00:11:43;;;;;;;23.75;5.38;;;;;;;;;;5095041;28;20081;-49
2021/07/23 00:14:09;;;;;;;9.52;4.45;;;;;;;;;;5095843;28;20024;-49
2021/07/23 00:16:36;;;;;;;8.88;4.88;;;;;;;;;;5095304;28;20444;-49
2021/07/23 00:19:02;;;;;;;9.98;5.03;;;;;;;;;;5095441;28;20088;-49
2021/07/23 00:21:27;;;;;;;7.47;4.15;;;;;;;;;;5094363;28;20400;-49
2021/07/23 00:23:54;;;;;;;10.80;5.63;;;;;;;;;;5096019;28;20051;-49
2021/07/23 00:26:21;;;;;;;10.23;4.97;;;;;;;;;;5095326;28;20021;-50
2021/07/23 00:28:47;;;;;;;10.95;4.93;;;;;;;;;;5095740;28;20111;-50
2021/07/23 00:31:13;;;;;;;14.63;5.10;;;;;;;;;;5094275;28;20066;-50
2021/07/23 00:33:39;;;;;;;8.88;5.22;;;;;;;;;;5095309;28;20035;-49
2021/07/23 00:36:05;;;;;;;13.82;5.47;;;;;;;;;;5095120;28;20349;-49
2021/07/23 00:38:31;;;;;;;14.95;5.75;;;;;;;;;;5094747;28;20024;-49
2021/07/23 00:40:57;;;;;;;13.52;6.43;;;;;;;;;;5093883;28;20300;-49
2021/07/23 00:43:23;;;;;;;10.50;5.57;;;;;;;;;;5094956;28;20024;-49
2021/07/23 00:45:49;;;;;;;17.70;6.13;;;;;;;;;;5095314;28;20028;-49
2021/07/23 00:48:15;;;;;;;12.02;5.38;;;;;;;;;;5094981;28;20016;-50
2021/07/23 00:50:42;;;;;;;10.75;5.72;;;;;;;;;;5093443;28;20031;-49
2021/07/23 00:53:09;;;;;;;11.85;5.28;;;;;;;;;;5094991;28;20031;-49
2021/07/23 00:55:35;;;;;;;9.48;4.80;;;;;;;;;;5095178;28;20028;-49
2021/07/23 00:58:02;;;;;;;13.85;5.68;;;;;;;;;;5094625;28;20077;-49
2021/07/23 01:00:28;;;;;;;8.45;4.95;;;;;;;;;;5094442;28;20028;-49
2021/07/23 01:02:55;;;;;;;17.25;5.90;;;;;;;;;;5094051;28;20024;-50
2021/07/23 01:05:21;;;;;;;9.65;5.60;;;;;;;;;;5094758;28;20016;-50
2021/07/23 01:07:48;;;;;;;11.27;5.38;;;;;;;;;;5094380;28;20024;-49
2021/07/23 01:10:14;;;;;;;10.00;5.18;;;;;;;;;;5094759;28;20089;-50
2021/07/23 01:12:40;;;;;;;19.70;5.78;;;;;;;;;;5093924;28;20024;-49
2021/07/23 01:15:06;;;;;;;12.27;6.15;;;;;;;;;;5094772;28;20403;-49
2021/07/23 01:17:32;;;;;;;13.55;5.30;;;;;;;;;;5094484;28;20020;-49
2021/07/23 01:20:04;;;;;;;12.85;5.50;;;;;;;;;;5093911;28;20039;-49
2021/07/23 01:22:31;;;;;;;14.75;5.85;;;;;;;;;;5092997;28;20466;-49
2021/07/23 01:24:57;;;;;;;14.00;5.63;;;;;;;;;;5094509;28;20032;-49
2021/07/23 01:27:24;;;;;;;8.80;5.82;;;;;;;;;;5094253;28;20039;-50
2021/07/23 01:29:50;;;;;;;11.20;5.95;;;;;;;;;;5093983;28;20396;-49
2021/07/23 01:32:16;;;;;;;13.05;5.60;;;;;;;;;;5092960;28;20027;-49
2021/07/23 01:34:42;;;;;;;11.05;5.00;;;;;;;;;;5094235;28;20393;-49
2021/07/23 01:37:08;;;;;;;8.77;5.10;;;;;;;;;;5093955;28;20024;-49
2021/07/23 01:39:35;;;;;;;12.50;5.63;;;;;;;;;;5093921;28;20089;-49
2021/07/23 01:42:01;;;;;;;13.60;5.65;;;;;;;;;;5086397;28;20520;-49
2021/07/23 01:44:27;;;;;;;10.40;5.82;;;;;;;;;;5073637;28;20066;-49
2021/07/23 01:46:53;;;;;;;16.38;5.40;;;;;;;;;;5073227;28;20429;-49
2021/07/23 01:49:19;;;;;;;9.85;5.15;;;;;;;;;;5073634;28;20449;-49
2021/07/23 01:51:45;;;;;;;10.52;5.43;;;;;;;;;;5071787;28;20016;-49
2021/07/23 01:54:11;;;;;;;10.35;5.20;;;;;;;;;;5073515;28;20028;-49
2021/07/23 01:56:37;;;;;;;13.82;5.70;;;;;;;;;;5073130;28;20021;-49
2021/07/23 01:59:03;;;;;;;12.82;5.63;;;;;;;;;;5073433;28;20434;-49
2021/07/23 02:01:29;;;;;;;15.55;5.47;;;;;;;;;;5072992;28;20103;-49
2021/07/23 02:03:55;;;;;;;8.05;4.68;;;;;;;;;;5073291;28;20190;-49
2021/07/23 02:06:21;;;;;;;9.55;5.57;;;;;;;;;;5073052;28;20036;-49
2021/07/23 02:08:47;;;;;;;8.77;4.78;;;;;;;;;;5072913;28;20079;-50
2021/07/23 02:11:13;;;;;;;13.45;5.03;;;;;;;;;;5072549;28;20067;-49
2021/07/23 02:13:39;;;;;;;9.45;5.28;;;;;;;;;;5069489;28;20241;-49
2021/07/23 02:16:06;;;;;;;12.40;6.05;;;;;;;;;;5090423;28;20024;-49
2021/07/23 02:18:32;;;;;;;11.82;5.75;;;;;;;;;;5093954;28;20103;-49
2021/07/23 02:20:58;;;;;;;9.60;5.15;;;;;;;;;;5092312;28;20118;-50
2021/07/23 02:23:24;;;;;;;9.18;5.03;;;;;;;;;;5093201;28;20024;-49
2021/07/23 02:25:50;;;;;;;9.45;5.43;;;;;;;;;;5092803;28;20122;-49
2021/07/23 02:28:16;;;;;;;9.50;5.78;;;;;;;;;;5092870;28;20103;-49
2021/07/23 02:30:42;;;;;;;9.20;5.25;;;;;;;;;;5092512;28;20028;-49
2021/07/23 02:33:08;;;;;;;9.80;5.18;;;;;;;;;;5093392;28;20028;-49
2021/07/23 02:35:34;;;;;;;13.13;6.10;;;;;;;;;;5093030;28;20395;-50
2021/07/23 02:38:00;;;;;;;15.35;5.82;;;;;;;;;;5093135;28;20024;-49
2021/07/23 02:40:26;;;;;;;11.43;5.20;;;;;;;;;;5092664;28;20123;-49
2021/07/23 02:42:52;;;;;;;17.83;5.50;;;;;;;;;;5092390;28;20028;-49
2021/07/23 02:45:18;;;;;;;8.63;5.30;;;;;;;;;;5093053;28;20028;-49
2021/07/23 02:47:45;;;;;;;15.00;5.47;;;;;;;;;;5092552;28;20030;-49
2021/07/23 02:50:11;;;;;;;9.75;4.90;;;;;;;;;;5093008;28;20024;-50
2021/07/23 02:52:37;;;;;;;10.88;5.45;;;;;;;;;;5092015;28;20047;-49
2021/07/23 02:55:03;;;;;;;11.45;5.47;;;;;;;;;;5093081;28;20020;-49
2021/07/23 02:57:29;;;;;;;8.85;5.07;;;;;;;;;;5092782;28;20027;-49
2021/07/23 02:59:55;;;;;;;12.73;4.97;;;;;;;;;;5092531;28;20035;-49
2021/07/23 03:02:21;;;;;;;11.02;5.32;;;;;;;;;;5092263;28;20024;-49
2021/07/23 03:04:47;;;;;;;10.43;5.00;;;;;;;;;;5096595;28;20024;-49
2021/07/23 03:07:13;;;;;;;14.55;5.20;;;;;;;;;;5097108;28;20020;-49
2021/07/23 03:09:39;;;;;;;9.27;4.72;;;;;;;;;;5096566;28;20342;-49
2021/07/23 03:12:05;;;;;;;10.05;5.05;;;;;;;;;;5095331;28;20024;-49
2021/07/23 03:14:32;;;;;;;12.48;5.25;;;;;;;;;;5096907;28;20024;-49
2021/07/23 03:16:58;;;;;;;13.50;4.78;;;;;;;;;;5096680;28;20028;-49
2021/07/23 03:19:23;;;;;;;9.02;4.65;;;;;;;;;;5096805;28;20349;-49
2021/07/23 03:21:49;;;;;;;8.50;5.35;;;;;;;;;;5094982;28;20060;-49
2021/07/23 03:24:15;;;;;;;11.15;4.90;;;;;;;;;;5096814;28;20088;-49
2021/07/23 03:26:41;;;;;;;7.10;4.22;;;;;;;;;;5084182;28;20616;-49
2021/07/23 03:29:07;;;;;;;15.63;5.35;;;;;;;;;;5095292;28;20040;-49
2021/07/23 03:31:33;;;;;;;14.05;5.28;;;;;;;;;;5089977;28;20096;-49
2021/07/23 03:33:59;;;;;;;10.32;5.28;;;;;;;;;;5076022;28;20028;-49
2021/07/23 03:36:26;;;;;;;11.73;4.80;;;;;;;;;;5076222;28;20044;-49
2021/07/23 03:38:52;;;;;;;9.35;5.63;;;;;;;;;;5075935;28;20123;-49
2021/07/23 03:41:18;;;;;;;13.85;5.18;;;;;;;;;;5074697;28;20433;-49
2021/07/23 03:43:44;;;;;;;13.63;5.55;;;;;;;;;;5080943;28;20020;-49
2021/07/23 03:46:10;;;;;;;11.50;5.28;;;;;;;;;;5095762;28;20503;-49
2021/07/23 03:48:36;;;;;;;14.82;5.60;;;;;;;;;;5096204;28;20059;-49
2021/07/23 03:51:02;;;;;;;15.10;5.47;;;;;;;;;;5094888;28;20102;-49
2021/07/23 03:53:28;;;;;;;23.98;5.80;;;;;;;;;;5096308;28;20438;-49
2021/07/23 03:55:54;;;;;;;8.40;4.63;;;;;;;;;;5095018;28;20031;-49
2021/07/23 03:58:20;;;;;;;12.77;4.97;;;;;;;;;;5095003;28;20020;-49
2021/07/23 04:00:46;;;;;;;8.70;4.88;;;;;;;;;;5094043;28;20047;-49
2021/07/23 04:03:12;;;;;;;7.95;4.95;;;;;;;;;;5095180;28;20073;-49
2021/07/23 04:05:37;;;;;;;9.02;5.28;;;;;;;;;;5094836;28;20441;-49
2021/07/23 04:08:04;;;;;;;7.50;5.13;;;;;;;;;;5094559;28;20097;-49
2021/07/23 04:10:30;;;;;;;10.07;4.38;;;;;;;;;;5094057;28;20403;-49
2021/07/23 04:12:56;;;;;;;12.70;5.60;;;;;;;;;;5095083;28;20445;-49
2021/07/23 04:15:22;;;;;;;18.45;5.55;;;;;;;;;;5094960;28;20043;-49
2021/07/23 04:17:48;;;;;;;8.45;4.68;;;;;;;;;;5095446;28;20059;-49
2021/07/23 04:20:14;;;;;;;14.10;5.95;;;;;;;;;;5095525;28;20063;-50
2021/07/23 04:22:40;;;;;;;9.63;5.03;;;;;;;;;;5094397;28;20031;-49
2021/07/23 04:25:06;;;;;;;13.88;5.05;;;;;;;;;;5087491;28;20024;-49
2021/07/23 04:27:32;;;;;;;8.02;4.30;;;;;;;;;;5075015;28;20020;-49
2021/07/23 04:29:58;;;;;;;8.50;4.75;;;;;;;;;;5074871;28;20380;-49
2021/07/23 04:32:24;;;;;;;10.55;4.82;;;;;;;;;;5074225;28;20110;-49
2021/07/23 04:34:50;;;;;;;8.38;4.93;;;;;;;;;;5075253;28;20035;-50
2021/07/23 04:37:16;;;;;;;8.60;4.38;;;;;;;;;;5074955;28;20024;-49
2021/07/23 04:39:42;;;;;;;11.27;5.53;;;;;;;;;;5074378;28;20105;-49
2021/07/23 04:42:08;;;;;;;12.15;5.95;;;;;;;;;;5073911;28;20056;-49
2021/07/23 04:44:34;;;;;;;13.57;5.65;;;;;;;;;;5073101;28;20035;-49
2021/07/23 04:47:01;;;;;;;13.40;5.95;;;;;;;;;;5074775;28;20115;-49
2021/07/23 04:49:27;;;;;;;9.35;5.43;;;;;;;;;;5074861;28;20062;-50
2021/07/23 04:51:53;;;;;;;10.55;5.97;;;;;;;;;;5079031;28;20016;-50
2021/07/23 04:54:20;;;;;;;18.05;5.97;;;;;;;;;;5094390;28;20638;-49
2021/07/23 04:56:48;;;;;;;16.73;5.82;;;;;;;;;;5094396;28;20027;-49
2021/07/23 04:59:15;;;;;;;15.88;6.00;;;;;;;;;;5082243;28;20054;-49
2021/07/23 05:01:41;;;;;;;12.27;5.72;;;;;;;;;;5087162;28;20031;-49
2021/07/23 05:04:07;;;;;;;10.50;5.93;;;;;;;;;;5079605;28;20027;-49
2021/07/23 05:06:33;;;;;;;10.20;5.20;;;;;;;;;;5078263;28;20028;-49
2021/07/23 05:08:59;;;;;;;12.93;5.30;;;;;;;;;;5072126;28;20388;-49
2021/07/23 05:11:25;;;;;;;10.48;4.82;;;;;;;;;;5072437;28;20031;-49
2021/07/23 05:13:51;;;;;;;11.50;5.18;;;;;;;;;;5073939;28;20029;-49
2021/07/23 05:16:17;;;;;;;11.40;5.80;;;;;;;;;;5075379;28;20425;-49
2021/07/23 05:18:44;;;;;;;10.23;5.22;;;;;;;;;;5085451;28;20408;-49
2021/07/23 05:21:10;;;;;;;12.63;5.68;;;;;;;;;;5093389;28;20521;-49
2021/07/23 05:23:36;;;;;;;12.48;4.63;;;;;;;;;;5093725;28;20032;-49
2021/07/23 05:26:05;;;;;;;16.35;5.35;;;;;;;;;;5093828;28;20445;-49
2021/07/23 05:28:32;;;;;;;9.50;5.00;;;;;;;;;;5093100;28;20400;-49
2021/07/23 05:30:59;;;;;;;15.52;6.93;;;;;;;;;;5092986;28;20056;-50
2021/07/23 05:33:25;;;;;;;13.02;6.63;;;;;;;;;;5093372;28;20031;-50
2021/07/23 05:35:51;;;;;;;16.52;5.60;;;;;;;;;;5093778;28;20346;-50
2021/07/23 05:38:17;;;;;;;10.50;6.10;;;;;;;;;;5094037;28;20475;-50
2021/07/23 05:40:43;;;;;;;12.90;6.32;;;;;;;;;;5092860;28;20024;-50
2021/07/23 05:43:10;;;;;;;13.35;6.28;;;;;;;;;;5093395;28;20024;-50
2021/07/23 05:45:40;;;;;;;12.73;6.05;;;;;;;;;;5094050;28;20028;-50
2021/07/23 05:48:06;;;;;;;10.80;6.32;;;;;;;;;;5090437;28;20426;-50
2021/07/23 05:50:32;;;;;;;15.52;6.45;;;;;;;;;;5093299;28;20028;-50
2021/07/23 05:52:58;;;;;;;14.95;6.07;;;;;;;;;;5093258;28;20520;-50
2021/07/23 05:55:24;;;;;;;25.95;6.40;;;;;;;;;;5093770;28;20063;-50
2021/07/23 05:57:50;;;;;;;8.63;5.28;;;;;;;;;;5092934;28;20024;-50
2021/07/23 06:00:16;;;;;;;13.50;6.40;;;;;;;;;;5093425;28;20020;-50
2021/07/23 06:02:43;;;;;;;12.45;6.50;;;;;;;;;;5093180;28;20020;-50
2021/07/23 06:05:09;;;;;;;14.10;6.05;;;;;;;;;;5092659;28;20028;-50
2021/07/23 06:07:38;;;;;;;12.32;5.95;;;;;;;;;;5092714;28;20349;-50
2021/07/23 06:10:04;;;;;;;10.57;6.13;;;;;;;;;;5072039;28;20032;-50
2021/07/23 06:12:30;;;;;;;15.75;6.50;;;;;;;;;;5092617;28;20027;-50
2021/07/23 06:14:56;;;;;;;11.13;6.18;;;;;;;;;;5093477;28;20031;-50
2021/07/23 06:17:22;;;;;;;16.45;6.32;;;;;;;;;;5090245;28;20182;-50
2021/07/23 06:19:48;;;;;;;15.15;6.40;;;;;;;;;;5093152;28;20054;-50
2021/07/23 06:22:17;;;;;;;12.98;6.28;;;;;;;;;;5092036;28;20052;-50
2021/07/23 06:24:44;;;;;;;10.70;5.80;;;;;;;;;;5093209;28;20036;-50
2021/07/23 06:27:10;;;;;;;17.33;6.40;;;;;;;;;;5092965;28;20250;-50
2021/07/23 06:29:36;;;;;;;13.27;6.57;;;;;;;;;;5092712;28;20119;-50
2021/07/23 06:32:02;;;;;;;14.48;7.22;;;;;;;;;;5092632;28;20107;-50
2021/07/23 06:34:28;;;;;;;13.65;6.55;;;;;;;;;;5093152;28;20028;-50
2021/07/23 06:36:54;;;;;;;12.57;6.57;;;;;;;;;;5092869;28;20085;-50
2021/07/23 06:39:20;;;;;;;17.02;6.93;;;;;;;;;;5091913;28;20044;-50
2021/07/23 06:41:46;;;;;;;12.25;6.05;;;;;;;;;;5092576;28;20434;-50
2021/07/23 06:44:13;;;;;;;11.70;6.43;;;;;;;;;;5092754;28;20060;-50
2021/07/23 06:46:39;;;;;;;11.18;7.25;;;;;;;;;;5092806;28;20480;-50
2021/07/23 06:49:05;;;;;;;18.85;6.95;;;;;;;;;;5092726;28;20071;-50
2021/07/23 06:51:31;;;;;;;15.77;6.03;;;;;;;;;;5091928;28;20020;-50
2021/07/23 06:53:59;;;;;;;15.07;7.00;;;;;;;;;;5091996;28;20031;-50
2021/07/23 06:56:25;;;;;;;21.63;6.72;;;;;;;;;;5093126;28;20063;-50
2021/07/23 06:58:51;;;;;;;17.98;6.93;;;;;;;;;;5092853;28;20024;-50
2021/07/23 07:01:17;;;;;;;19.60;6.47;;;;;;;;;;5092176;28;20028;-50
2021/07/23 07:03:43;;;;;;;13.18;6.63;;;;;;;;;;5092464;28;20088;-50
2021/07/23 07:06:09;;;;;;;10.60;6.15;;;;;;;;;;5092847;28;20058;-50
2021/07/23 07:08:35;;;;;;;12.40;7.10;;;;;;;;;;5092566;28;20111;-50
2021/07/23 07:11:01;;;;;;;13.98;7.32;;;;;;;;;;5092137;28;20138;-50
2021/07/23 07:13:27;;;;;;;16.08;6.47;;;;;;;;;;5092309;28;20020;-50
2021/07/23 07:15:53;;;;;;;9.85;6.03;;;;;;;;;;5092908;28;20081;-50
2021/07/23 07:18:19;;;;;;;15.13;6.95;;;;;;;;;;5089184;28;20091;-50
2021/07/23 07:20:45;;;;;;;16.00;6.82;;;;;;;;;;5089076;28;20031;-51
2021/07/23 07:23:11;;;;;;;13.80;7.13;;;;;;;;;;5092124;28;20038;-50
2021/07/23 07:25:37;;;;;;;8.50;6.43;;;;;;;;;;5092609;28;20054;-50
2021/07/23 07:28:03;;;;;;;14.05;7.05;;;;;;;;;;5092111;28;20074;-50
2021/07/23 07:30:29;;;;;;;13.50;6.47;;;;;;;;;;5092138;28;20040;-50
2021/07/23 07:32:56;;;;;;;17.58;7.10;;;;;;;;;;5091789;28;20046;-50
2021/07/23 07:35:22;;;;;;;11.98;6.47;;;;;;;;;;5091899;28;20028;-50
2021/07/23 07:37:48;;;;;;;18.02;7.00;;;;;;;;;;5092232;28;20031;-50
2021/07/23 07:40:14;;;;;;;13.95;6.50;;;;;;;;;;5092204;28;20020;-50
2021/07/23 07:42:41;;;;;;;16.77;7.07;;;;;;;;;;5091909;28;20024;-50
2021/07/23 07:45:07;;;;;;;12.00;6.55;;;;;;;;;;5092009;28;20024;-50
2021/07/23 07:47:33;;;;;;;13.82;6.82;;;;;;;;;;5092198;28;20464;-50
2021/07/23 07:49:59;;;;;;;17.17;8.18;;;;;;;;;;5091267;28;20044;-50
2021/07/23 07:52:25;;;;;;;17.05;6.68;;;;;;;;;;5083195;28;20411;-50
2021/07/23 07:54:51;;;;;;;12.18;6.40;;;;;;;;;;5095569;28;20028;-51
2021/07/23 07:57:17;;;;;;;28.70;7.20;;;;;;;;;;5096157;28;20028;-50
2021/07/23 07:59:43;;;;;;;11.35;5.82;;;;;;;;;;5095524;28;20035;-50
2021/07/23 08:02:10;;;;;;;13.23;6.13;;;;;;;;;;5095086;28;20028;-50
2021/07/23 08:04:36;;;;;;;11.23;6.32;;;;;;;;;;5095037;28;20030;-50
2021/07/23 08:07:06;;;;;;;12.80;6.57;;;;;;;;;;5095209;28;20031;-50
2021/07/23 08:09:37;;;;;;;10.73;5.68;;;;;;;;;;5093796;28;20457;-50
2021/07/23 08:12:04;;;;;;;12.07;6.03;;;;;;;;;;5094900;28;20036;-50
2021/07/23 08:14:30;;;;;;;12.35;6.03;;;;;;;;;;5095428;28;20107;-50
2021/07/23 08:16:56;;;;;;;12.45;6.60;;;;;;;;;;5095976;28;20031;-50
2021/07/23 08:19:22;;;;;;;14.50;6.35;;;;;;;;;;5095010;28;20032;-50
2021/07/23 08:21:48;;;;;;;20.27;7.68;;;;;;;;;;5094636;28;20106;-51
2021/07/23 08:24:14;;;;;;;11.70;6.82;;;;;;;;;;5095202;28;20020;-50
2021/07/23 08:26:39;;;;;;;11.07;5.97;;;;;;;;;;5095365;28;20028;-50
2021/07/23 08:29:05;;;;;;;14.93;6.47;;;;;;;;;;5095409;28;20424;-50
2021/07/23 08:31:31;;;;;;;11.60;6.32;;;;;;;;;;5094318;28;20047;-50
2021/07/23 08:33:57;;;;;;;13.95;6.03;;;;;;;;;;5095235;28;20111;-50
2021/07/23 08:36:23;;;;;;;12.80;5.45;;;;;;;;;;5095229;28;20099;-50
2021/07/23 08:38:49;;;;;;;11.20;5.57;;;;;;;;;;5095367;28;20032;-50
2021/07/23 08:41:15;;;;;;;12.00;6.18;;;;;;;;;;5093879;28;20516;-50
2021/07/23 08:43:41;;;;;;;9.80;5.53;;;;;;;;;;5095070;28;20469;-50
2021/07/23 08:46:08;;;;;;;10.15;6.05;;;;;;;;;;5095060;28;20386;-50
2021/07/23 08:48:34;;;;;;;13.07;6.22;;;;;;;;;;5094545;28;20028;-50
2021/07/23 08:51:00;;;;;;;11.95;6.15;;;;;;;;;;5089800;28;20172;-50
2021/07/23 08:53:26;;;;;;;15.63;6.93;;;;;;;;;;5094713;28;20095;-50
2021/07/23 08:55:52;;;;;;;13.02;5.70;;;;;;;;;;5094760;28;20039;-50
2021/07/23 08:58:20;;;;;;;10.52;6.22;;;;;;;;;;5094358;28;20020;-50
2021/07/23 09:00:46;;;;;;;10.82;6.22;;;;;;;;;;5087732;28;20758;-50
2021/07/23 09:03:12;;;;;;;14.25;6.93;;;;;;;;;;5085196;28;20039;-50
2021/07/23 09:05:41;;;;;;;11.15;6.38;;;;;;;;;;5094826;28;20016;-50
2021/07/23 09:08:19;;;;;;;10.60;5.95;;;;;;;;;;5094179;28;20032;-50
2021/07/23 09:10:46;;;;;;;16.55;7.22;;;;;;;;;;5093449;28;20036;-51
2021/07/23 09:13:20;;;;;;;13.55;6.43;;;;;;;;;;5094319;28;20043;-50
2021/07/23 09:15:46;;;;;;;12.65;6.72;;;;;;;;;;5093931;28;20548;-50
2021/07/23 09:18:35;;;;;;;13.40;5.85;;;;;;;;;;5094544;28;20028;-50
2021/07/23 09:21:05;;;;;;;8.23;4.70;;;;;;;;;;5093573;28;20024;-51
2021/07/23 09:23:35;;;;;;;10.77;5.68;;;;;;;;;;5094169;28;20020;-50
2021/07/23 09:26:02;;;;;;;11.57;5.82;;;;;;;;;;5093378;28;20051;-51
2021/07/23 09:28:35;;;;;;;11.65;6.07;;;;;;;;;;5093899;28;20366;-50
2021/07/23 09:31:06;;;;;;;12.52;5.57;;;;;;;;;;5092810;28;20115;-50
2021/07/23 09:33:32;;;;;;;15.55;6.22;;;;;;;;;;5094289;28;20335;-50
2021/07/23 09:36:03;;;;;;;10.38;5.63;;;;;;;;;;5093767;28;20069;-50
2021/07/23 09:38:36;;;;;;;9.70;5.03;;;;;;;;;;5093350;28;20467;-50
2021/07/23 09:41:02;;;;;;;10.55;4.85;;;;;;;;;;5092781;28;20465;-50
2021/07/23 09:43:29;;;;;;;8.73;5.25;;;;;;;;;;5094120;28;20016;-50
2021/07/23 09:45:55;;;;;;;9.63;4.60;;;;;;;;;;5093517;28;20035;-50
2021/07/23 09:48:21;;;;;;;11.80;5.57;;;;;;;;;;5093217;28;20392;-51
2021/07/23 09:50:47;;;;;;;11.10;6.30;;;;;;;;;;5083516;28;20067;-50
2021/07/23 09:53:15;;;;;;;12.43;5.97;;;;;;;;;;5071941;28;20400;-50
2021/07/23 09:55:44;;;;;;;9.30;4.93;;;;;;;;;;5072448;28;20029;-50
2021/07/23 09:58:12;;;;;;;11.55;4.68;;;;;;;;;;5073364;28;20486;-50
2021/07/23 10:00:39;;;;;;;11.80;6.22;;;;;;;;;;5072532;28;20044;-51
2021/07/23 10:03:12;;;;;;;11.13;5.38;;;;;;;;;;5073254;28;20025;-50
2021/07/23 10:05:43;;;;;;;10.05;5.47;;;;;;;;;;5072914;28;20403;-50
2021/07/23 10:08:11;;;;;;;9.20;5.72;;;;;;;;;;5073561;28;20025;-50
2021/07/23 10:10:38;;;;;;;15.05;6.53;;;;;;;;;;5072529;28;20032;-50
2021/07/23 10:13:05;;;;;;;17.33;6.45;;;;;;;;;;5072421;28;20104;-50
2021/07/23 10:15:31;;;;;;;11.75;6.53;;;;;;;;;;5072992;28;20032;-50
2021/07/23 10:17:59;;;;;;;8.52;5.60;;;;;;;;;;5072624;28;20442;-50
2021/07/23 10:20:25;;;;;;;10.02;5.78;;;;;;;;;;5073001;28;20025;-50
2021/07/23 10:22:52;;;;;;;13.27;5.68;;;;;;;;;;5072390;28;20113;-50
2021/07/23 10:25:18;;;;;;;11.68;6.53;;;;;;;;;;5073136;28;20104;-50
2021/07/23 10:27:47;;;;;;;12.05;6.55;;;;;;;;;;5072978;28;20020;-50
2021/07/23 10:30:31;;;;;;;12.70;6.57;;;;;;;;;;5072853;28;20025;-50
2021/07/23 10:32:57;;;;;;;11.45;6.28;;;;;;;;;;5072540;28;20404;-50
2021/07/23 10:35:26;;;;;;;11.98;6.40;;;;;;;;;;5072876;28;20017;-50
2021/07/23 10:37:53;;;;;;;11.00;6.57;;;;;;;;;;5072926;28;20121;-50
2021/07/23 10:40:20;;;;;;;11.63;6.03;;;;;;;;;;5072923;28;20040;-51
2021/07/23 10:42:46;;;;;;;11.23;5.55;;;;;;;;;;5071586;28;20389;-50
2021/07/23 10:45:19;;;;;;;11.38;5.95;;;;;;;;;;5070672;28;20541;-50
2021/07/23 10:47:46;;;;;;;14.70;6.18;;;;;;;;;;5072522;28;20029;-50
2021/07/23 10:50:35;;;;;;;12.18;6.93;;;;;;;;;;5072661;28;20029;-50
2021/07/23 10:53:20;;;;;;;14.35;6.20;;;;;;;;;;5069619;28;20060;-50
2021/07/23 10:55:46;;;;;;;12.63;6.40;;;;;;;;;;5077500;28;20028;-50
2021/07/23 10:58:12;;;;;;;11.45;6.38;;;;;;;;;;5092958;28;20101;-50
2021/07/23 11:00:47;;;;;;;11.55;6.38;;;;;;;;;;5087663;28;20009;-50
2021/07/23 11:03:32;;;;;;;9.60;5.57;;;;;;;;;;5092273;28;20036;-50
2021/07/23 11:05:58;;;;;;;20.55;8.23;;;;;;;;;;5071947;28;20017;-50
2021/07/23 11:08:24;;;;;;;15.65;5.57;;;;;;;;;;5079801;28;20024;-50
2021/07/23 11:10:56;;;;;;;13.77;6.93;;;;;;;;;;5091833;28;20335;-50
2021/07/23 11:13:25;;;;;;;11.43;5.97;;;;;;;;;;5092244;28;20047;-50
2021/07/23 11:16:08;;;;;;;15.60;6.80;;;;;;;;;;5097435;28;20028;-50
2021/07/23 11:18:34;;;;;;;11.02;6.22;;;;;;;;;;5112275;28;20506;-50
2021/07/23 11:21:00;;;;;;;14.20;6.22;;;;;;;;;;5112151;28;20031;-50
2021/07/23 11:23:31;;;;;;;10.88;5.78;;;;;;;;;;5112354;28;20115;-51
2021/07/23 11:25:58;;;;;;;13.38;5.85;;;;;;;;;;5116706;28;20468;-50
2021/07/23 11:28:25;;;;;;;11.27;6.60;;;;;;;;;;5116617;28;20035;-50
2021/07/23 11:30:54;;;;;;;14.38;7.28;;;;;;;;;;5115559;28;20059;-50
2021/07/23 11:33:27;;;;;;;12.10;6.63;;;;;;;;;;5115004;28;20090;-50
2021/07/23 11:35:53;;;;;;;12.50;6.10;;;;;;;;;;5096479;28;20059;-50
2021/07/23 11:38:22;;;;;;;11.07;5.90;;;;;;;;;;5096672;28;20115;-50
2021/07/23 11:40:48;;;;;;;14.88;7.53;;;;;;;;;;5095725;28;20115;-50
2021/07/23 11:43:21;;;;;;;11.68;6.38;;;;;;;;;;5096104;28;20050;-50
2021/07/23 11:45:47;;;;;;;18.48;6.53;;;;;;;;;;5096317;28;20025;-50
2021/07/23 11:48:15;;;;;;;11.50;6.03;;;;;;;;;;5096080;28;20028;-50
2021/07/23 11:50:51;;;;;;;11.85;6.18;;;;;;;;;;5086847;28;20497;-50
2021/07/23 11:53:17;;;;;;;13.73;7.32;;;;;;;;;;5075282;28;20166;-50
2021/07/23 11:55:43;;;;;;;11.35;5.93;;;;;;;;;;5075536;28;20211;-50
2021/07/23 11:58:20;;;;;;;9.40;5.22;;;;;;;;;;5075658;28;20060;-50
2021/07/23 12:00:46;;;;;;;12.93;5.55;;;;;;;;;;5085522;28;20031;-50
2021/07/23 12:03:17;;;;;;;12.68;5.93;;;;;;;;;;5095117;28;20028;-50
2021/07/23 12:05:43;;;;;;;11.65;5.45;;;;;;;;;;5094314;28;20020;-50
2021/07/23 12:08:09;;;;;;;14.48;6.32;;;;;;;;;;5095075;28;20109;-51
2021/07/23 12:10:35;;;;;;;11.13;5.45;;;;;;;;;;5095187;28;20032;-50
2021/07/23 12:13:05;;;;;;;10.18;6.40;;;;;;;;;;5095291;28;20471;-50
2021/07/23 12:15:31;;;;;;;11.77;5.30;;;;;;;;;;5095721;28;20361;-50
2021/07/23 12:17:57;;;;;;;13.50;5.75;;;;;;;;;;5095657;28;20562;-50
2021/07/23 12:20:28;;;;;;;12.45;5.95;;;;;;;;;;5095345;28;20522;-51
2021/07/23 12:23:00;;;;;;;12.65;5.60;;;;;;;;;;5094511;28;20042;-50
2021/07/23 12:25:27;;;;;;;8.85;5.68;;;;;;;;;;5095625;28;20020;-50
2021/07/23 12:28:13;;;;;;;15.77;6.40;;;;;;;;;;5095455;28;20020;-50
2021/07/23 12:30:40;;;;;;;14.25;6.13;;;;;;;;;;5094408;28;20101;-50
2021/07/23 12:33:12;;;;;;;12.50;5.82;;;;;;;;;;5095257;28;20035;-50
2021/07/23 12:35:38;;;;;;;14.88;6.15;;;;;;;;;;5094426;28;20032;-50
2021/07/23 12:38:05;;;;;;;13.18;6.13;;;;;;;;;;5095255;28;20023;-50
2021/07/23 12:40:50;;;;;;;10.07;5.57;;;;;;;;;;5094842;28;20031;-50
2021/07/23 12:43:20;;;;;;;13.88;5.93;;;;;;;;;;5095033;28;20028;-50
2021/07/23 12:45:46;;;;;;;12.07;5.90;;;;;;;;;;5094560;28;20047;-50
2021/07/23 12:48:13;;;;;;;9.38;5.57;;;;;;;;;;5095118;28;20105;-50
2021/07/23 12:50:40;;;;;;;11.02;5.38;;;;;;;;;;5086353;28;20037;-50
2021/07/23 12:53:06;;;;;;;9.88;5.60;;;;;;;;;;5074784;28;20087;-50
2021/07/23 12:55:32;;;;;;;12.75;5.55;;;;;;;;;;5074874;28;20032;-50
2021/07/23 12:57:58;;;;;;;13.27;5.65;;;;;;;;;;5074416;28;20028;-50
2021/07/23 13:00:26;;;;;;;9.90;5.53;;;;;;;;;;5074215;28;20448;-50
2021/07/23 13:02:53;;;;;;;9.98;6.35;;;;;;;;;;5073980;28;20107;-50
2021/07/23 13:05:23;;;;;;;11.73;6.13;;;;;;;;;;5074364;28;20047;-50
2021/07/23 13:07:49;;;;;;;12.13;5.35;;;;;;;;;;5074051;28;20447;-50
2021/07/23 13:10:16;;;;;;;10.85;5.78;;;;;;;;;;5074331;28;20047;-50
2021/07/23 13:12:45;;;;;;;16.98;6.57;;;;;;;;;;5074082;28;20123;-50
2021/07/23 13:15:11;;;;;;;11.90;6.00;;;;;;;;;;5093830;28;20395;-50
2021/07/23 13:17:37;;;;;;;15.30;6.65;;;;;;;;;;5090242;28;20024;-50
2021/07/23 13:20:04;;;;;;;12.55;5.88;;;;;;;;;;5078081;28;20127;-50
2021/07/23 13:22:30;;;;;;;13.30;6.25;;;;;;;;;;5091277;28;20039;-50
2021/07/23 13:24:56;;;;;;;15.93;6.60;;;;;;;;;;5093056;28;20060;-50
2021/07/23 13:27:22;;;;;;;11.50;6.25;;;;;;;;;;5093486;28;20052;-50
2021/07/23 13:29:48;;;;;;;12.60;5.93;;;;;;;;;;5093273;28;20032;-50
2021/07/23 13:32:14;;;;;;;15.82;6.25;;;;;;;;;;5087736;28;20460;-50
2021/07/23 13:34:40;;;;;;;13.15;5.68;;;;;;;;;;5085620;28;20028;-50
2021/07/23 13:37:09;;;;;;;11.88;5.65;;;;;;;;;;5091555;28;20017;-50
2021/07/23 13:39:40;;;;;;;18.25;6.15;;;;;;;;;;5092468;28;20484;-50
2021/07/23 13:42:09;;;;;;;12.15;6.28;;;;;;;;;;5092246;28;20042;-50
2021/07/23 13:44:35;;;;;;;17.65;6.45;;;;;;;;;;5090973;28;20020;-50
2021/07/23 13:47:03;;;;;;;15.10;6.18;;;;;;;;;;5093758;28;20112;-50
2021/07/23 13:49:29;;;;;;;12.68;6.43;;;;;;;;;;5093454;28;20063;-50
2021/07/23 13:51:55;;;;;;;10.70;6.10;;;;;;;;;;5073911;28;20035;-51
2021/07/23 13:54:21;;;;;;;12.20;6.32;;;;;;;;;;5076567;28;20021;-50
2021/07/23 13:56:47;;;;;;;13.38;6.38;;;;;;;;;;5093847;28;20025;-50
2021/07/23 13:59:13;;;;;;;11.60;5.95;;;;;;;;;;5093671;28;20027;-50
2021/07/23 14:01:39;;;;;;;15.00;5.80;;;;;;;;;;5092316;28;20392;-50
2021/07/23 14:04:05;;;;;;;13.20;6.50;;;;;;;;;;5092545;28;20028;-50
2021/07/23 14:06:31;;;;;;;11.90;6.20;;;;;;;;;;5093776;28;20153;-50
2021/07/23 14:08:58;;;;;;;17.25;6.35;;;;;;;;;;5093033;28;20024;-50
2021/07/23 14:11:25;;;;;;;10.75;5.28;;;;;;;;;;5092641;28;20028;-50
2021/07/23 14:13:51;;;;;;;12.35;6.15;;;;;;;;;;5093181;28;20024;-50
2021/07/23 14:16:20;;;;;;;13.85;5.65;;;;;;;;;;5093879;28;20023;-50
2021/07/23 14:18:47;;;;;;;13.20;6.60;;;;;;;;;;5093378;28;20035;-50
2021/07/23 14:21:14;;;;;;;8.50;5.18;;;;;;;;;;5087445;28;20028;-51
2021/07/23 14:23:40;;;;;;;11.13;5.88;;;;;;;;;;5072996;28;20433;-50
2021/07/23 14:26:06;;;;;;;9.05;4.78;;;;;;;;;;5073280;28;20025;-50
2021/07/23 14:28:33;;;;;;;11.77;5.93;;;;;;;;;;5071617;28;20039;-50
2021/07/23 14:30:59;;;;;;;11.27;5.38;;;;;;;;;;5091127;28;20467;-50
2021/07/23 14:33:25;;;;;;;12.52;6.40;;;;;;;;;;5088580;28;20104;-50